createdAt,value
2023-08-16T00:00:05.139Z,19.48
2023-08-16T00:02:31.917Z,17.38
2023-08-16T00:04:58.598Z,22.75
2023-08-16T00:07:25.710Z,16.83
2023-08-16T00:09:55.565Z,16.30
2023-08-16T00:12:23.381Z,11.38
2023-08-16T00:14:50.151Z,21.52
2023-08-16T00:17:16.688Z,22.95
2023-08-16T00:19:43.710Z,17.38
2023-08-16T00:22:10.319Z,19.07
2023-08-16T00:24:37.034Z,16.55
2023-08-16T00:27:04.454Z,17.52
2023-08-16T00:29:31.220Z,17.42
2023-08-16T00:31:59.073Z,19.55
2023-08-16T00:34:25.673Z,23.23
2023-08-16T00:36:52.447Z,19.92
2023-08-16T00:39:19.200Z,18.50
2023-08-16T00:41:45.796Z,15.80
2023-08-16T00:44:12.388Z,15.05
2023-08-16T00:46:39.255Z,14.67
2023-08-16T00:49:06.054Z,15.05
2023-08-16T00:51:32.776Z,21.10
2023-08-16T00:53:59.469Z,22.42
2023-08-16T00:56:26.193Z,15.95
2023-08-16T00:58:56.050Z,15.77
2023-08-16T01:01:22.836Z,16.70
2023-08-16T01:03:51.954Z,14.02
2023-08-16T01:06:18.709Z,19.15
2023-08-16T01:08:45.371Z,14.77
2023-08-16T01:11:20.489Z,15.90
2023-08-16T01:13:58.249Z,17.73
2023-08-16T01:16:29.134Z,15.27
2023-08-16T01:18:57.697Z,14.55
2023-08-16T01:21:25.687Z,14.70
2023-08-16T01:24:00.390Z,18.97
2023-08-16T01:26:40.266Z,15.75
2023-08-16T01:29:09.072Z,12.75
2023-08-16T01:31:36.355Z,13.85
2023-08-16T01:34:06.485Z,16.60
2023-08-16T01:36:35.922Z,13.27
2023-08-16T01:39:02.941Z,11.55
2023-08-16T01:41:39.977Z,12.40
2023-08-16T01:44:08.970Z,11.82
2023-08-16T01:46:39.138Z,8.85
2023-08-16T01:49:08.228Z,8.33
2023-08-16T01:51:35.080Z,14.52
2023-08-16T01:54:01.836Z,9.82
2023-08-16T01:56:30.907Z,11.05
2023-08-16T01:58:57.770Z,11.48
2023-08-16T02:01:24.817Z,11.57
2023-08-16T02:03:51.578Z,14.82
2023-08-16T02:06:18.678Z,14.63
2023-08-16T02:08:45.459Z,15.75
2023-08-16T02:11:12.413Z,18.25
2023-08-16T02:13:39.408Z,16.03
2023-08-16T02:16:08.542Z,18.45
2023-08-16T02:21:15.087Z,12.85
2023-08-16T02:23:41.714Z,13.85
2023-08-16T02:26:08.336Z,12.83
2023-08-16T02:28:35.622Z,19.52
2023-08-16T02:31:06.500Z,16.30
2023-08-16T02:33:40.571Z,16.95
2023-08-16T02:36:07.243Z,18.10
2023-08-16T02:38:36.189Z,17.57
2023-08-16T02:41:02.970Z,16.17
2023-08-16T02:43:29.641Z,18.40
2023-08-16T02:45:57.001Z,16.83
2023-08-16T02:48:23.656Z,17.40
2023-08-16T02:50:50.540Z,15.40
2023-08-16T02:53:17.879Z,15.35
2023-08-16T02:55:44.632Z,13.77
2023-08-16T02:58:11.384Z,12.45
2023-08-16T03:00:39.827Z,18.35
2023-08-16T03:03:07.553Z,15.97
2023-08-16T03:05:34.322Z,17.42
2023-08-16T03:08:00.981Z,15.23
2023-08-16T03:10:27.606Z,14.90
2023-08-16T03:12:54.300Z,18.85
2023-08-16T03:15:21.091Z,14.33
2023-08-16T03:17:47.845Z,14.55
2023-08-16T03:20:14.892Z,16.70
2023-08-16T03:22:45.168Z,14.20
2023-08-16T03:27:54.187Z,14.80
2023-08-16T03:30:20.945Z,12.55
2023-08-16T03:32:50.852Z,16.30
2023-08-16T03:35:21.494Z,15.70
2023-08-16T03:37:48.249Z,14.23
2023-08-16T03:40:16.368Z,12.83
2023-08-16T03:43:01.442Z,19.48
2023-08-16T03:45:40.777Z,16.58
2023-08-16T03:48:16.866Z,13.13
2023-08-16T03:50:52.920Z,11.45
2023-08-16T03:53:56.556Z,15.00
2023-08-16T03:59:11.811Z,14.30
2023-08-16T04:01:47.518Z,15.68
2023-08-16T04:08:11.574Z,13.00
2023-08-16T04:11:02.862Z,11.32
2023-08-16T04:14:15.770Z,10.02
2023-08-16T04:16:59.966Z,13.00
2023-08-16T04:19:26.531Z,15.25
2023-08-16T04:21:58.761Z,13.90
2023-08-16T04:24:25.477Z,17.10
2023-08-16T04:26:52.160Z,15.20
2023-08-16T04:29:19.331Z,16.23
2023-08-16T04:31:46.238Z,19.05
2023-08-16T04:34:19.836Z,14.73
2023-08-16T04:37:12.582Z,17.55
2023-08-16T04:39:49.714Z,12.70
2023-08-16T04:42:16.585Z,16.85
2023-08-16T04:45:12.771Z,14.18
2023-08-16T04:47:45.312Z,16.57
2023-08-16T04:50:12.054Z,16.73
2023-08-16T04:52:39.022Z,14.25
2023-08-16T04:55:06.839Z,18.17
2023-08-16T04:57:34.825Z,15.63
2023-08-16T05:00:05.036Z,16.83
2023-08-16T05:02:34.148Z,18.65
2023-08-16T05:05:01.171Z,16.63
2023-08-16T05:07:27.823Z,16.60
2023-08-16T05:10:01.491Z,19.58
2023-08-16T05:12:30.950Z,17.20
2023-08-16T05:14:57.781Z,25.65
2023-08-16T05:17:25.752Z,23.20
2023-08-16T05:20:14.376Z,22.95
2023-08-16T05:23:19.542Z,23.25
2023-08-16T05:25:47.474Z,19.87
2023-08-16T05:28:39.295Z,19.27
2023-08-16T05:31:11.280Z,18.65
2023-08-16T05:33:39.708Z,17.00
2023-08-16T05:36:11.110Z,21.27
2023-08-16T05:38:37.721Z,19.47
2023-08-16T05:41:11.911Z,15.38
2023-08-16T05:43:38.832Z,15.43
2023-08-16T05:46:08.074Z,18.88
2023-08-16T05:48:37.525Z,18.88
2023-08-16T05:54:51.050Z,20.60
2023-08-16T05:57:28.948Z,15.98
2023-08-16T06:00:01.687Z,18.27
2023-08-16T06:02:30.692Z,27.02
2023-08-16T06:05:00.227Z,18.70
2023-08-16T06:07:27.742Z,32.45
2023-08-16T06:09:54.590Z,37.35
2023-08-16T06:12:21.759Z,35.15
2023-08-16T06:17:31.082Z,35.97
2023-08-16T06:19:57.876Z,45.13
2023-08-16T06:22:24.574Z,45.72
2023-08-16T06:24:54.689Z,48.40
2023-08-16T06:27:22.039Z,53.33
2023-08-16T06:29:49.045Z,53.67
2023-08-16T06:32:16.033Z,55.08
2023-08-16T06:34:42.748Z,62.92
2023-08-16T06:37:09.441Z,61.60
2023-08-16T06:39:36.200Z,57.65
2023-08-16T06:42:06.698Z,64.43
2023-08-16T06:44:34.519Z,59.92
2023-08-16T06:47:01.207Z,66.13
2023-08-16T06:49:27.903Z,67.32
2023-08-16T06:51:54.538Z,62.95
2023-08-16T06:54:21.233Z,61.53
2023-08-16T06:56:59.708Z,66.55
2023-08-16T06:59:28.587Z,55.70
2023-08-16T07:01:55.351Z,41.22
2023-08-16T07:04:24.900Z,31.70
2023-08-16T07:06:51.761Z,35.10
2023-08-16T07:09:23.404Z,21.58
2023-08-16T07:11:52.832Z,20.40
2023-08-16T07:14:25.160Z,21.88
2023-08-16T07:16:54.678Z,17.60
2023-08-16T07:19:23.878Z,19.23
2023-08-16T07:21:50.964Z,12.13
2023-08-16T07:24:17.651Z,8.85
2023-08-16T07:26:46.624Z,8.32
2023-08-16T07:29:13.351Z,9.50
2023-08-16T07:31:40.057Z,9.40
2023-08-16T07:34:07.026Z,8.10
2023-08-16T07:36:35.053Z,9.13
2023-08-16T07:39:02.238Z,10.30
2023-08-16T07:41:29.069Z,8.70
2023-08-16T07:43:59.476Z,6.83
2023-08-16T07:46:27.084Z,7.65
2023-08-16T07:48:54.110Z,7.45
2023-08-16T07:51:22.015Z,6.30
2023-08-16T07:53:48.823Z,8.10
2023-08-16T07:56:15.505Z,8.50
2023-08-16T07:58:44.320Z,9.18
2023-08-16T08:01:17.498Z,8.82
2023-08-16T08:03:44.231Z,7.85
2023-08-16T08:06:11.040Z,8.13
2023-08-16T08:08:37.738Z,8.53
2023-08-16T08:11:07.825Z,7.25
2023-08-16T08:13:34.493Z,7.07
2023-08-16T08:16:01.904Z,8.38
2023-08-16T08:18:28.565Z,9.68
2023-08-16T08:20:58.334Z,8.43
2023-08-16T08:23:24.974Z,8.18
2023-08-16T08:25:51.757Z,7.03
2023-08-16T08:28:19.730Z,5.88
2023-08-16T08:30:46.287Z,7.72
2023-08-16T08:33:12.956Z,6.80
2023-08-16T08:35:44.486Z,9.88
2023-08-16T08:38:11.614Z,6.72
2023-08-16T08:40:38.253Z,6.60
2023-08-16T08:43:07.342Z,8.80
2023-08-16T08:45:35.642Z,6.67
2023-08-16T08:48:02.990Z,6.90
2023-08-16T08:50:29.923Z,5.97
2023-08-16T08:52:57.828Z,9.07
2023-08-16T08:55:30.017Z,7.32
2023-08-16T08:58:03.120Z,6.10
2023-08-16T09:00:33.170Z,6.20
2023-08-16T09:03:06.397Z,6.20
2023-08-16T09:05:34.154Z,7.60
2023-08-16T09:08:01.852Z,4.93
2023-08-16T09:10:28.435Z,6.73
2023-08-16T09:12:55.905Z,7.07
2023-08-16T09:15:22.889Z,5.40
2023-08-16T09:17:52.119Z,5.55
2023-08-16T09:20:19.461Z,7.25
2023-08-16T09:22:48.890Z,6.17
2023-08-16T09:25:18.160Z,5.55
2023-08-16T09:27:44.834Z,5.53
2023-08-16T09:30:14.746Z,4.93
2023-08-16T09:32:41.448Z,7.85
2023-08-16T09:35:13.742Z,4.97
2023-08-16T09:37:40.953Z,8.30
2023-08-16T09:40:08.174Z,8.73
2023-08-16T09:42:35.179Z,7.45
2023-08-16T09:45:04.321Z,7.25
2023-08-16T09:50:07.194Z,7.88
2023-08-16T09:52:36.045Z,7.35
2023-08-16T09:55:03.861Z,8.25
2023-08-16T09:57:31.513Z,6.15
2023-08-16T09:59:58.393Z,7.47
2023-08-16T10:07:26.961Z,8.48
2023-08-16T10:09:54.508Z,6.05
2023-08-16T10:12:21.918Z,6.33
2023-08-16T10:14:48.495Z,6.35
2023-08-16T10:17:17.825Z,6.68
2023-08-16T10:19:48.648Z,6.03
2023-08-16T10:22:35.350Z,4.60
2023-08-16T10:25:14.373Z,7.17
2023-08-16T10:27:45.588Z,5.47
2023-08-16T10:30:25.378Z,8.40
2023-08-16T10:33:06.160Z,5.35
2023-08-16T10:35:36.152Z,8.90
2023-08-16T10:38:03.168Z,4.50
2023-08-16T10:43:04.614Z,8.15
2023-08-16T10:48:14.598Z,8.15
2023-08-16T10:50:41.806Z,6.30
2023-08-16T10:53:09.203Z,5.97
2023-08-16T10:55:36.917Z,6.15
2023-08-16T10:58:03.716Z,7.35
2023-08-16T11:00:37.487Z,6.65
2023-08-16T11:03:07.061Z,8.83
2023-08-16T11:05:35.153Z,5.47
2023-08-16T11:08:02.867Z,5.68
2023-08-16T11:10:38.896Z,6.13
2023-08-16T11:13:11.870Z,7.38
2023-08-16T11:15:40.033Z,5.87
2023-08-16T11:18:10.184Z,7.85
2023-08-16T11:20:37.970Z,5.53
2023-08-16T11:23:04.846Z,5.85
2023-08-16T11:25:34.954Z,7.63
2023-08-16T11:28:05.416Z,8.03
2023-08-16T11:30:32.902Z,7.75
2023-08-16T11:33:00.518Z,7.22
2023-08-16T11:35:27.250Z,7.38
2023-08-16T11:37:54.004Z,7.40
2023-08-16T11:40:23.696Z,6.60
2023-08-16T11:42:52.025Z,5.63
2023-08-16T11:45:20.482Z,5.97
2023-08-16T11:47:53.171Z,7.43
2023-08-16T11:50:20.868Z,6.07
2023-08-16T11:53:00.975Z,4.80
2023-08-16T11:55:30.912Z,4.97
2023-08-16T11:58:11.106Z,5.57
2023-08-16T12:00:38.112Z,5.72
2023-08-16T12:03:08.451Z,7.32
2023-08-16T12:05:39.790Z,7.20
2023-08-16T12:08:08.065Z,3.75
2023-08-16T12:10:36.316Z,5.47
2023-08-16T12:13:14.118Z,4.18
2023-08-16T12:15:42.694Z,5.78
2023-08-16T12:18:09.565Z,7.20
2023-08-16T12:20:37.139Z,5.10
2023-08-16T12:23:04.072Z,7.18
2023-08-16T12:25:30.743Z,5.13
2023-08-16T12:27:57.392Z,4.72
2023-08-16T12:30:24.103Z,5.50
2023-08-16T12:32:50.817Z,7.43
2023-08-16T12:35:17.664Z,5.35
2023-08-16T12:37:45.389Z,8.00
2023-08-16T12:40:13.738Z,5.05
2023-08-16T12:42:41.628Z,5.30
2023-08-16T12:45:09.785Z,5.10
2023-08-16T12:47:36.843Z,4.95
2023-08-16T12:50:03.679Z,8.05
2023-08-16T12:52:30.360Z,6.72
2023-08-16T12:54:56.978Z,5.50
2023-08-16T12:57:26.359Z,6.43
2023-08-16T12:59:54.533Z,7.07
2023-08-16T13:02:36.362Z,6.35
2023-08-16T13:05:12.463Z,5.90
2023-08-16T13:10:23.156Z,6.75
2023-08-16T13:18:19.220Z,4.95
2023-08-16T13:25:37.335Z,5.05
2023-08-16T13:28:18.377Z,3.58
2023-08-16T13:30:49.591Z,4.40
2023-08-16T13:35:51.070Z,3.55
2023-08-16T13:38:18.300Z,3.70
2023-08-16T13:43:25.341Z,3.72
2023-08-16T13:45:53.186Z,4.60
2023-08-16T13:48:19.975Z,3.30
2023-08-16T13:50:46.969Z,4.95
2023-08-16T13:53:16.578Z,4.90
2023-08-16T13:55:45.982Z,6.35
2023-08-16T13:58:13.052Z,3.63
2023-08-16T14:00:39.641Z,4.75
2023-08-16T14:03:06.509Z,3.65
2023-08-16T14:05:33.329Z,3.40
2023-08-16T14:07:59.896Z,7.47
2023-08-16T14:10:26.677Z,3.87
2023-08-16T14:12:53.366Z,3.20
2023-08-16T14:15:20.074Z,2.80
2023-08-16T14:17:46.943Z,6.07
2023-08-16T14:20:13.610Z,2.95
2023-08-16T14:22:40.308Z,4.50
2023-08-16T14:25:09.324Z,4.95
2023-08-16T14:27:36.065Z,4.75
2023-08-16T14:30:02.731Z,3.65
2023-08-16T14:32:29.484Z,4.45
2023-08-16T14:34:57.431Z,2.57
2023-08-16T14:37:24.495Z,4.70
2023-08-16T14:39:51.065Z,5.43
2023-08-16T14:42:20.745Z,1.83
2023-08-16T14:44:47.991Z,1.85
2023-08-16T14:47:14.678Z,2.23
2023-08-16T14:49:41.546Z,3.80
2023-08-16T14:52:11.095Z,3.17
2023-08-16T14:54:37.795Z,3.00
2023-08-16T14:57:04.605Z,4.18
2023-08-16T14:59:31.172Z,2.80
2023-08-16T15:01:57.837Z,3.30
2023-08-16T15:04:27.069Z,3.22
2023-08-16T15:06:53.987Z,4.35
2023-08-16T15:09:20.793Z,3.30
2023-08-16T15:11:47.423Z,3.53
2023-08-16T15:14:14.107Z,2.13
2023-08-16T15:16:40.801Z,2.83
2023-08-16T15:19:07.520Z,2.13
2023-08-16T15:21:36.109Z,3.78
2023-08-16T15:24:05.918Z,2.57
2023-08-16T15:26:32.654Z,3.83
2023-08-16T15:28:59.131Z,3.40
2023-08-16T15:31:25.897Z,4.05
2023-08-16T15:33:52.859Z,5.22
2023-08-16T15:36:19.529Z,4.73
2023-08-16T15:38:51.317Z,5.55
2023-08-16T15:41:19.638Z,3.17
2023-08-16T15:43:49.384Z,3.00
2023-08-16T15:46:16.026Z,3.03
2023-08-16T15:48:42.786Z,3.77
2023-08-16T15:51:09.522Z,2.42
2023-08-16T15:53:36.375Z,2.58
2023-08-16T15:56:06.041Z,4.30
2023-08-16T15:58:32.959Z,6.53
2023-08-16T16:01:04.044Z,3.43
2023-08-16T16:03:35.305Z,3.88
2023-08-16T16:06:04.144Z,2.80
2023-08-16T16:08:32.812Z,2.75
2023-08-16T16:10:59.908Z,2.92
2023-08-16T16:13:27.029Z,2.93
2023-08-16T16:15:53.766Z,3.30
2023-08-16T16:18:22.428Z,2.60
2023-08-16T16:20:49.370Z,3.25
2023-08-16T16:23:16.019Z,6.10
2023-08-16T16:25:42.652Z,5.00
2023-08-16T16:28:09.473Z,5.18
2023-08-16T16:30:36.216Z,3.03
2023-08-16T16:33:03.305Z,3.30
2023-08-16T16:35:30.121Z,2.90
2023-08-16T16:37:57.525Z,5.20
2023-08-16T16:40:24.348Z,3.00
2023-08-16T16:42:51.952Z,4.05
2023-08-16T16:45:21.506Z,2.83
2023-08-16T16:47:51.848Z,4.60
2023-08-16T16:50:22.026Z,4.23
2023-08-16T16:52:54.227Z,5.70
2023-08-16T16:55:26.365Z,4.50
2023-08-16T16:57:58.043Z,2.83
2023-08-16T17:00:46.983Z,3.35
2023-08-16T17:03:22.158Z,3.20
2023-08-16T17:05:54.023Z,4.50
2023-08-16T17:08:25.728Z,4.57
2023-08-16T17:10:58.224Z,5.47
2023-08-16T17:13:36.418Z,3.83
2023-08-16T17:16:05.300Z,3.63
2023-08-16T17:18:34.946Z,3.33
2023-08-16T17:21:22.287Z,3.63
2023-08-16T17:23:54.628Z,3.35
2023-08-16T17:26:30.477Z,2.80
2023-08-16T17:29:02.884Z,2.70
2023-08-16T17:31:49.633Z,2.97
2023-08-16T17:34:26.885Z,4.95
2023-08-16T17:37:01.017Z,2.92
2023-08-16T17:39:30.613Z,2.10
2023-08-16T17:41:57.468Z,2.30
2023-08-16T17:44:31.625Z,2.85
2023-08-16T17:49:53.997Z,3.58
2023-08-16T17:52:25.708Z,1.83
2023-08-16T17:54:58.573Z,4.50
2023-08-16T17:57:28.390Z,4.20
2023-08-16T17:59:55.096Z,5.35
2023-08-16T18:02:32.068Z,6.00
2023-08-16T18:05:47.980Z,2.92
2023-08-16T18:18:27.895Z,3.75
2023-08-16T18:21:00.894Z,2.85
2023-08-16T18:36:35.948Z,4.60
2023-08-16T18:51:00.044Z,3.25
2023-08-16T18:53:26.733Z,4.37
2023-08-16T19:00:50.471Z,6.70
2023-08-16T19:03:17.165Z,6.97
2023-08-16T19:12:39.773Z,3.72
2023-08-16T19:15:08.111Z,10.20
2023-08-16T19:17:51.421Z,5.15
2023-08-16T19:20:27.000Z,5.25
2023-08-16T19:22:54.192Z,4.93
2023-08-16T19:25:20.919Z,4.47
2023-08-16T19:31:22.880Z,5.47
2023-08-16T19:34:01.006Z,3.83
2023-08-16T19:36:27.710Z,4.33
2023-08-16T19:38:55.215Z,6.25
2023-08-16T19:41:21.841Z,4.47
2023-08-16T19:46:43.590Z,4.70
2023-08-16T19:52:39.483Z,7.75
2023-08-16T20:01:38.602Z,8.32
2023-08-16T20:04:25.261Z,4.77
2023-08-16T20:07:07.110Z,6.82
2023-08-16T20:13:27.926Z,4.35
2023-08-16T20:16:15.189Z,5.47
2023-08-16T20:25:21.494Z,5.20
2023-08-16T20:28:00.279Z,7.90
2023-08-16T20:31:00.021Z,6.90
2023-08-16T20:40:29.074Z,6.82
2023-08-16T20:43:21.960Z,9.70
2023-08-16T20:45:48.633Z,5.38
2023-08-16T20:48:28.611Z,7.90
2023-08-16T20:51:04.263Z,7.25
2023-08-16T20:56:37.749Z,6.85
2023-08-16T21:00:14.527Z,6.35
2023-08-16T21:02:48.154Z,6.13
2023-08-16T21:06:37.265Z,6.45
2023-08-16T21:08:32.296Z,7.82
2023-08-16T21:16:37.760Z,7.40
2023-08-16T21:19:05.083Z,6.55
2023-08-16T21:21:43.518Z,6.50
2023-08-16T21:24:12.914Z,7.45
2023-08-16T21:26:50.777Z,6.25
2023-08-16T21:32:23.060Z,6.22
2023-08-16T21:34:52.805Z,7.68
2023-08-16T21:37:19.377Z,7.05
2023-08-16T21:39:47.202Z,8.20
2023-08-16T21:42:16.683Z,5.87
2023-08-16T21:45:04.961Z,8.85
2023-08-16T21:48:07.754Z,7.65
2023-08-16T21:51:09.722Z,8.05
2023-08-16T21:53:36.381Z,9.27
2023-08-16T21:56:09.489Z,6.40
2023-08-16T21:58:36.039Z,8.10
2023-08-16T22:01:08.578Z,6.88
2023-08-16T22:03:35.313Z,7.70
2023-08-16T22:06:07.705Z,8.65
2023-08-16T22:11:39.104Z,7.85
2023-08-16T22:14:05.789Z,8.45
2023-08-16T22:16:35.371Z,7.07
2023-08-16T22:19:02.067Z,7.18
2023-08-16T22:21:41.772Z,8.30
2023-08-16T22:27:07.771Z,9.52
2023-08-16T22:30:45.767Z,8.27
2023-08-16T22:33:12.354Z,7.32
2023-08-16T22:35:38.922Z,8.73
2023-08-16T22:41:36.562Z,8.10
2023-08-16T22:44:03.269Z,9.15
2023-08-16T22:46:31.593Z,11.18
2023-08-16T22:48:58.181Z,10.30
2023-08-16T22:51:52.322Z,8.00
2023-08-16T22:54:54.479Z,11.43
2023-08-16T23:00:36.570Z,8.98
2023-08-16T23:04:10.540Z,9.10
2023-08-16T23:09:06.564Z,8.20
2023-08-16T23:11:33.098Z,8.97
2023-08-16T23:13:59.674Z,8.93
2023-08-16T23:16:26.424Z,11.45
2023-08-16T23:19:12.977Z,9.40
2023-08-16T23:22:00.925Z,11.88
2023-08-16T23:27:19.570Z,8.80
2023-08-16T23:29:49.155Z,11.25
2023-08-16T23:32:23.185Z,8.80
2023-08-16T23:34:52.603Z,9.32
2023-08-16T23:47:30.835Z,8.13
2023-08-16T23:52:37.840Z,11.53
2023-08-16T23:55:05.472Z,11.35
2023-08-16T23:57:32.042Z,12.27
